createdAt,value
2023-04-18T00:01:08.116Z,101264.69
2023-04-18T00:03:39.056Z,101256.78
2023-04-18T00:06:08.190Z,101250.91
2023-04-18T00:08:37.130Z,101253.56
2023-04-18T00:11:06.020Z,101262.03
2023-04-18T00:13:35.290Z,101261.50
2023-04-18T00:16:04.092Z,101258.50
2023-04-18T00:18:37.049Z,101266.31
2023-04-18T00:21:06.523Z,101261.66
2023-04-18T00:23:35.552Z,101272.94
2023-04-18T00:26:04.490Z,101265.22
2023-04-18T00:28:33.422Z,101269.63
2023-04-18T00:31:02.248Z,101261.50
2023-04-18T00:33:35.474Z,101264.03
2023-04-18T00:36:04.687Z,101258.78
2023-04-18T00:38:33.588Z,101262.22
2023-04-18T00:41:02.343Z,101256.94
2023-04-18T00:43:32.408Z,101261.25
2023-04-18T00:46:01.953Z,101264.91
2023-04-18T00:48:31.818Z,101265.81
2023-04-18T00:51:02.381Z,101263.81
2023-04-18T00:53:31.912Z,101266.06
2023-04-18T00:56:00.723Z,101265.66
2023-04-18T00:58:29.762Z,101257.78
2023-04-18T01:00:59.986Z,101258.00
2023-04-18T01:03:29.244Z,101260.34
2023-04-18T01:05:58.356Z,101268.38
2023-04-18T01:08:28.897Z,101264.84
2023-04-18T01:11:00.123Z,101266.66
2023-04-18T01:13:29.071Z,101277.63
2023-04-18T01:15:59.028Z,101271.47
2023-04-18T01:18:27.990Z,101273.47
2023-04-18T01:22:10.929Z,101266.38
2023-04-18T01:24:42.164Z,101271.78
2023-04-18T01:27:13.399Z,101271.78
2023-04-18T01:29:42.387Z,101269.28
2023-04-18T01:32:11.192Z,101266.50
2023-04-18T01:34:40.274Z,101269.16
2023-04-18T01:37:08.884Z,101252.53
2023-04-18T01:39:37.816Z,101259.50
2023-04-18T01:42:07.966Z,101257.56
2023-04-18T01:44:36.901Z,101263.66
2023-04-18T01:47:05.971Z,101260.09
2023-04-18T01:49:35.082Z,101256.38
2023-04-18T01:52:03.769Z,101268.00
2023-04-18T01:54:32.706Z,101263.66
2023-04-18T01:57:01.419Z,101265.44
2023-04-18T01:59:31.722Z,101264.91
2023-04-18T02:02:01.004Z,101263.13
2023-04-18T02:04:30.129Z,101267.19
2023-04-18T02:06:58.808Z,101258.47
2023-04-18T02:09:27.724Z,101253.13
2023-04-18T02:11:59.376Z,101253.38
2023-04-18T02:14:29.196Z,101248.03
2023-04-18T02:17:03.766Z,101254.13
2023-04-18T02:19:33.220Z,101242.69
2023-04-18T02:22:02.991Z,101238.19
2023-04-18T02:24:33.572Z,101248.72
2023-04-18T02:27:02.222Z,101245.16
2023-04-18T02:29:31.218Z,101245.78
2023-04-18T02:32:00.172Z,101252.22
2023-04-18T02:34:30.601Z,101243.91
2023-04-18T02:36:59.328Z,101250.00
2023-04-18T02:39:28.357Z,101243.16
2023-04-18T02:41:56.989Z,101234.31
2023-04-18T02:44:26.999Z,101242.03
2023-04-18T02:46:57.310Z,101242.81
2023-04-18T02:49:26.378Z,101240.91
2023-04-18T02:51:57.252Z,101248.78
2023-04-18T02:54:26.233Z,101255.56
2023-04-18T02:57:01.342Z,101243.34
2023-04-18T02:59:43.301Z,101247.91
2023-04-18T03:02:41.471Z,101243.41
2023-04-18T03:05:24.033Z,101254.88
2023-04-18T03:07:56.732Z,101250.16
2023-04-18T03:10:26.269Z,101259.13
2023-04-18T03:12:54.997Z,101257.28
2023-04-18T03:15:24.166Z,101253.09
2023-04-18T03:17:54.315Z,101256.41
2023-04-18T03:20:25.125Z,101251.31
2023-04-18T03:22:55.879Z,101249.84
2023-04-18T03:25:27.404Z,101252.66
2023-04-18T03:27:56.373Z,101253.66
2023-04-18T03:30:27.361Z,101257.13
2023-04-18T03:32:58.754Z,101260.72
2023-04-18T03:35:27.898Z,101263.25
2023-04-18T03:37:58.890Z,101258.94
2023-04-18T03:40:31.895Z,101265.88
2023-04-18T03:43:07.534Z,101260.47
2023-04-18T03:45:37.161Z,101268.34
2023-04-18T03:48:07.229Z,101270.06
2023-04-18T03:50:40.641Z,101266.75
2023-04-18T03:53:14.413Z,101267.88
2023-04-18T03:55:44.474Z,101271.13
2023-04-18T03:58:16.252Z,101275.69
2023-04-18T04:00:46.491Z,101277.41
2023-04-18T04:03:15.548Z,101276.56
2023-04-18T04:05:44.728Z,101278.25
2023-04-18T04:08:16.405Z,101277.25
2023-04-18T04:10:47.002Z,101276.50
2023-04-18T04:13:15.966Z,101278.25
2023-04-18T04:15:45.394Z,101275.47
2023-04-18T04:18:14.060Z,101279.00
2023-04-18T04:20:47.093Z,101282.19
2023-04-18T04:23:28.018Z,101272.59
2023-04-18T04:25:58.682Z,101286.22
2023-04-18T04:28:40.821Z,101284.25
2023-04-18T04:31:10.652Z,101287.56
2023-04-18T04:33:41.103Z,101282.56
2023-04-18T04:36:19.082Z,101284.41
2023-04-18T04:38:52.305Z,101285.25
2023-04-18T04:41:25.975Z,101293.84
2023-04-18T04:43:54.656Z,101287.31
2023-04-18T04:46:29.504Z,101290.75
2023-04-18T04:48:59.227Z,101295.13
2023-04-18T04:51:29.108Z,101296.75
2023-04-18T04:53:59.959Z,101297.44
2023-04-18T04:56:29.194Z,101295.66
2023-04-18T04:58:58.221Z,101296.25
2023-04-18T05:01:33.684Z,101297.88
2023-04-18T05:04:02.526Z,101289.25
2023-04-18T05:06:31.845Z,101295.03
2023-04-18T05:09:01.891Z,101292.03
2023-04-18T05:11:30.874Z,101302.56
2023-04-18T05:13:59.706Z,101301.50
2023-04-18T05:16:28.807Z,101301.13
2023-04-18T05:18:57.489Z,101308.13
2023-04-18T05:21:27.530Z,101302.56
2023-04-18T05:23:56.349Z,101307.75
2023-04-18T05:26:26.760Z,101305.91
2023-04-18T05:28:55.549Z,101308.34
2023-04-18T05:31:24.507Z,101309.31
2023-04-18T05:33:53.195Z,101304.03
2023-04-18T05:36:22.985Z,101305.56
2023-04-18T05:38:52.056Z,101304.47
2023-04-18T05:41:21.052Z,101307.69
2023-04-18T05:44:02.435Z,101304.53
2023-04-18T05:46:34.457Z,101303.09
2023-04-18T05:49:03.656Z,101305.22
2023-04-18T05:51:32.742Z,101303.53
2023-04-18T05:54:01.482Z,101304.38
2023-04-18T05:56:31.317Z,101303.63
2023-04-18T05:59:01.353Z,101307.78
2023-04-18T06:01:30.348Z,101309.41
2023-04-18T06:03:59.202Z,101305.94
2023-04-18T06:06:28.389Z,101312.47
2023-04-18T06:08:57.032Z,101305.06
2023-04-18T06:11:25.955Z,101311.84
2023-04-18T06:13:56.034Z,101309.13
2023-04-18T06:16:26.549Z,101316.06
2023-04-18T06:18:56.165Z,101308.69
2023-04-18T06:21:25.871Z,101317.09
2023-04-18T06:23:54.481Z,101310.63
2023-04-18T06:26:23.459Z,101313.00
2023-04-18T06:28:52.117Z,101318.28
2023-04-18T06:31:21.304Z,101314.25
2023-04-18T06:33:52.022Z,101321.81
2023-04-18T06:36:21.156Z,101316.00
2023-04-18T06:38:50.120Z,101325.44
2023-04-18T06:41:19.072Z,101317.69
2023-04-18T06:44:02.119Z,101326.38
2023-04-18T06:46:32.484Z,101334.34
2023-04-18T06:49:02.600Z,101332.69
2023-04-18T06:51:31.653Z,101331.06
2023-04-18T06:54:00.527Z,101328.19
2023-04-18T06:56:29.742Z,101331.84
2023-04-18T06:58:58.501Z,101330.72
2023-04-18T07:01:27.547Z,101331.31
2023-04-18T07:03:56.396Z,101339.78
2023-04-18T07:06:27.488Z,101336.31
2023-04-18T07:09:00.100Z,101333.59
2023-04-18T07:11:29.232Z,101330.16
2023-04-18T07:13:57.950Z,101325.56
2023-04-18T07:16:27.047Z,101327.44
2023-04-18T07:18:55.950Z,101331.03
2023-04-18T07:21:26.459Z,101330.16
2023-04-18T07:23:55.434Z,101329.16
2023-04-18T07:26:24.594Z,101335.19
2023-04-18T07:28:56.158Z,101332.19
2023-04-18T07:31:25.914Z,101324.94
2023-04-18T07:33:54.623Z,101333.09
2023-04-18T07:36:23.773Z,101335.66
2023-04-18T07:38:53.790Z,101327.38
2023-04-18T07:41:22.736Z,101326.91
2023-04-18T07:43:51.393Z,101328.88
2023-04-18T07:46:20.464Z,101331.72
2023-04-18T07:48:49.155Z,101333.16
2023-04-18T07:51:18.118Z,101335.19
2023-04-18T07:53:46.775Z,101337.56
2023-04-18T07:56:17.413Z,101335.53
2023-04-18T07:58:46.260Z,101335.88
2023-04-18T08:01:18.295Z,101338.63
2023-04-18T08:03:47.972Z,101336.78
2023-04-18T08:06:17.825Z,101345.50
2023-04-18T08:08:46.511Z,101336.25
2023-04-18T08:11:16.886Z,101350.44
2023-04-18T08:13:45.644Z,101347.28
2023-04-18T08:16:17.067Z,101350.78
2023-04-18T08:18:46.207Z,101351.88
2023-04-18T08:21:15.226Z,101351.22
2023-04-18T08:23:43.939Z,101351.97
2023-04-18T08:26:13.266Z,101354.06
2023-04-18T08:28:46.110Z,101344.59
2023-04-18T08:31:17.197Z,101348.28
2023-04-18T08:33:45.937Z,101357.09
2023-04-18T08:36:14.932Z,101350.84
2023-04-18T08:38:43.584Z,101347.66
2023-04-18T08:41:12.694Z,101341.28
2023-04-18T08:43:43.012Z,101340.53
2023-04-18T08:46:12.387Z,101339.66
2023-04-18T08:48:41.230Z,101344.25
2023-04-18T08:51:10.322Z,101346.16
2023-04-18T08:53:42.014Z,101341.78
2023-04-18T08:56:14.701Z,101345.06
2023-04-18T08:58:45.736Z,101342.81
2023-04-18T09:01:15.117Z,101343.09
2023-04-18T09:03:44.546Z,101343.97
2023-04-18T09:06:18.682Z,101330.88
2023-04-18T09:08:58.917Z,101329.72
2023-04-18T09:11:32.515Z,101329.59
2023-04-18T09:14:02.796Z,101322.41
2023-04-18T09:16:48.251Z,101320.38
2023-04-18T09:19:18.886Z,101314.75
2023-04-18T09:21:48.936Z,101319.50
2023-04-18T09:24:23.837Z,101316.38
2023-04-18T09:26:55.929Z,101321.72
2023-04-18T09:29:46.561Z,101312.41
2023-04-18T09:32:27.100Z,101307.84
2023-04-18T09:35:01.392Z,101313.72
2023-04-18T09:37:31.851Z,101316.22
2023-04-18T09:40:00.641Z,101308.63
2023-04-18T09:42:37.676Z,101321.13
2023-04-18T09:45:09.542Z,101309.59
2023-04-18T09:47:38.567Z,101314.31
2023-04-18T09:50:10.016Z,101312.72
2023-04-18T09:52:42.022Z,101316.19
2023-04-18T09:55:14.303Z,101309.63
2023-04-18T09:57:47.241Z,101310.34
2023-04-18T10:00:25.278Z,101304.81
2023-04-18T10:02:59.258Z,101307.50
2023-04-18T10:05:32.985Z,101307.44
2023-04-18T10:08:02.247Z,101315.38
2023-04-18T10:10:31.239Z,101305.97
2023-04-18T10:13:03.262Z,101303.47
2023-04-18T10:15:34.370Z,101303.31
2023-04-18T10:18:08.092Z,101302.31
2023-04-18T10:20:37.151Z,101289.69
2023-04-18T10:23:37.566Z,101298.69
2023-04-18T10:26:07.190Z,101299.22
2023-04-18T10:28:53.284Z,101289.59
2023-04-18T10:31:25.577Z,101291.44
2023-04-18T10:36:28.468Z,101288.53
2023-04-18T10:39:04.226Z,101289.44
2023-04-18T10:41:34.689Z,101286.97
2023-04-18T10:44:22.568Z,101277.78
2023-04-18T10:47:23.051Z,101281.59
2023-04-18T10:50:01.122Z,101277.56
2023-04-18T10:52:30.452Z,101277.41
2023-04-18T10:55:27.258Z,101276.84
2023-04-18T10:58:00.417Z,101272.00
2023-04-18T11:00:32.229Z,101276.00
2023-04-18T11:03:03.030Z,101268.97
2023-04-18T11:05:32.483Z,101265.97
2023-04-18T11:08:01.163Z,101262.38
2023-04-18T11:10:30.231Z,101247.69
2023-04-18T11:13:04.535Z,101255.47
2023-04-18T11:15:33.681Z,101260.25
2023-04-18T11:18:06.041Z,101262.22
2023-04-18T11:20:41.084Z,101260.13
2023-04-18T11:23:19.650Z,101257.88
2023-04-18T11:25:52.070Z,101243.13
2023-04-18T11:28:22.446Z,101250.31
2023-04-18T11:30:51.994Z,101248.88
2023-04-18T11:33:22.083Z,101252.06
2023-04-18T11:35:51.136Z,101252.19
2023-04-18T11:38:21.702Z,101246.88
2023-04-18T11:40:52.150Z,101245.19
2023-04-18T11:43:23.990Z,101249.50
2023-04-18T11:45:55.769Z,101243.28
2023-04-18T11:48:34.883Z,101242.13
2023-04-18T11:51:03.895Z,101246.88
2023-04-18T11:53:36.779Z,101243.28
2023-04-18T11:56:07.388Z,101244.72
2023-04-18T11:58:37.638Z,101232.44
2023-04-18T12:01:21.005Z,101238.31
2023-04-18T12:04:05.445Z,101228.63
2023-04-18T12:06:50.961Z,101242.53
2023-04-18T12:09:22.234Z,101239.06
2023-04-18T12:12:04.287Z,101239.31
2023-04-18T12:14:33.037Z,101233.03
2023-04-18T12:17:05.112Z,101226.53
2023-04-18T12:19:35.261Z,101232.28
2023-04-18T12:22:06.589Z,101220.94
2023-04-18T12:24:36.155Z,101227.91
2023-04-18T12:27:05.200Z,101220.38
2023-04-18T12:29:33.856Z,101225.91
2023-04-18T12:32:02.875Z,101225.75
2023-04-18T12:34:31.595Z,101213.63
2023-04-18T12:37:03.643Z,101216.41
2023-04-18T12:39:32.288Z,101211.72
2023-04-18T12:42:02.298Z,101207.16
2023-04-18T12:44:30.918Z,101215.84
2023-04-18T12:46:59.837Z,101209.69
2023-04-18T12:49:28.819Z,101200.34
2023-04-18T12:51:57.824Z,101203.78
2023-04-18T12:54:27.860Z,101207.47
2023-04-18T12:56:57.411Z,101207.59
2023-04-18T12:59:26.142Z,101199.44
2023-04-18T13:01:55.265Z,101197.22
2023-04-18T13:04:24.253Z,101198.75
2023-04-18T13:06:53.271Z,101192.28
2023-04-18T13:09:21.892Z,101193.38
2023-04-18T13:11:52.196Z,101192.34
2023-04-18T13:14:21.249Z,101193.31
2023-04-18T13:16:50.379Z,101183.22
2023-04-18T13:19:19.054Z,101182.22
2023-04-18T13:21:49.647Z,101182.50
2023-04-18T13:24:18.377Z,101180.28
2023-04-18T13:26:47.645Z,101179.47
2023-04-18T13:29:17.704Z,101169.72
2023-04-18T13:31:46.776Z,101171.50
2023-04-18T13:34:15.568Z,101166.63
2023-04-18T13:36:44.589Z,101168.75
2023-04-18T13:39:14.844Z,101163.25
2023-04-18T13:41:43.845Z,101173.75
2023-04-18T13:44:12.462Z,101166.16
2023-04-18T13:46:42.732Z,101161.56
2023-04-18T13:49:11.556Z,101161.38
2023-04-18T13:51:40.693Z,101160.47
2023-04-18T13:54:09.398Z,101167.03
2023-04-18T13:56:38.855Z,101158.69
2023-04-18T13:59:07.523Z,101166.09
2023-04-18T14:01:36.529Z,101146.47
2023-04-18T14:04:06.873Z,101149.97
2023-04-18T14:06:36.010Z,101152.78
2023-04-18T14:09:04.891Z,101147.16
2023-04-18T14:11:34.653Z,101149.13
2023-04-18T14:14:03.636Z,101134.41
2023-04-18T14:16:33.614Z,101146.03
2023-04-18T14:19:02.610Z,101146.13
2023-04-18T14:21:33.005Z,101145.06
2023-04-18T14:24:01.745Z,101140.78
2023-04-18T14:26:30.975Z,101146.75
2023-04-18T14:28:59.683Z,101147.63
2023-04-18T14:31:29.088Z,101143.16
2023-04-18T14:33:57.826Z,101139.19
2023-04-18T14:36:27.227Z,101139.31
2023-04-18T14:38:57.318Z,101141.59
2023-04-18T14:41:26.415Z,101138.94
2023-04-18T14:43:55.257Z,101129.41
2023-04-18T14:46:24.191Z,101131.63
2023-04-18T14:48:52.849Z,101130.63
2023-04-18T14:51:21.808Z,101125.53
2023-04-18T14:53:50.629Z,101130.59
2023-04-18T14:56:22.175Z,101127.41
2023-04-18T14:58:51.017Z,101128.97
2023-04-18T15:01:20.061Z,101116.78
2023-04-18T15:03:51.398Z,101119.44
2023-04-18T15:06:20.851Z,101119.94
2023-04-18T15:08:49.896Z,101110.84
2023-04-18T15:11:20.869Z,101104.94
2023-04-18T15:13:50.749Z,101113.50
2023-04-18T15:16:19.985Z,101123.56
2023-04-18T15:18:48.882Z,101118.25
2023-04-18T15:21:18.166Z,101116.34
2023-04-18T15:23:47.015Z,101118.50
2023-04-18T15:26:16.013Z,101111.28
2023-04-18T15:28:46.649Z,101118.47
2023-04-18T15:31:16.063Z,101120.66
2023-04-18T15:33:44.832Z,101121.28
2023-04-18T15:36:13.859Z,101119.53
2023-04-18T15:38:42.985Z,101118.09
2023-04-18T15:41:11.960Z,101117.75
2023-04-18T15:43:41.907Z,101116.66
2023-04-18T15:46:12.656Z,101123.81
2023-04-18T15:48:41.527Z,101116.72
2023-04-18T15:51:10.634Z,101108.41
2023-04-18T15:53:39.342Z,101107.66
2023-04-18T15:56:08.499Z,101103.81
2023-04-18T15:58:37.234Z,101108.66
2023-04-18T16:01:07.094Z,101107.19
2023-04-18T16:03:37.962Z,101101.69
2023-04-18T16:06:07.973Z,101110.59
2023-04-18T16:08:36.717Z,101110.59
2023-04-18T16:11:06.663Z,101100.34
2023-04-18T16:13:38.316Z,101106.53
2023-04-18T16:16:08.217Z,101101.69
2023-04-18T16:18:38.296Z,101097.69
2023-04-18T16:21:07.442Z,101098.22
2023-04-18T16:23:36.370Z,101092.75
2023-04-18T16:26:05.800Z,101099.75
2023-04-18T16:28:37.714Z,101098.66
2023-04-18T16:31:07.622Z,101093.13
2023-04-18T16:33:37.722Z,101089.38
2023-04-18T16:36:07.425Z,101091.78
2023-04-18T16:38:36.200Z,101094.44
2023-04-18T16:41:05.175Z,101091.06
2023-04-18T16:43:36.501Z,101089.38
2023-04-18T16:46:06.096Z,101085.28
2023-04-18T16:48:37.973Z,101082.88
2023-04-18T16:51:08.522Z,101088.03
2023-04-18T16:53:37.164Z,101081.19
2023-04-18T16:56:07.957Z,101085.66
2023-04-18T16:58:36.598Z,101081.31
2023-04-18T17:01:08.116Z,101078.19
2023-04-18T17:03:37.540Z,101078.53
2023-04-18T17:06:08.186Z,101083.00
2023-04-18T17:08:36.916Z,101073.22
2023-04-18T17:11:06.293Z,101078.53
2023-04-18T17:13:36.055Z,101082.41
2023-04-18T17:16:05.673Z,101074.56
2023-04-18T17:18:34.425Z,101079.03
2023-04-18T17:21:03.424Z,101078.34
2023-04-18T17:23:33.433Z,101079.28
2023-04-18T17:26:02.518Z,101080.34
2023-04-18T17:28:31.380Z,101084.09
2023-04-18T17:31:01.905Z,101080.47
2023-04-18T17:33:30.693Z,101075.44
2023-04-18T17:35:59.779Z,101078.09
2023-04-18T17:38:28.428Z,101078.56
2023-04-18T17:41:02.912Z,101072.41
2023-04-18T17:43:31.688Z,101070.72
2023-04-18T17:46:03.634Z,101073.72
2023-04-18T17:48:32.520Z,101078.19
2023-04-18T17:51:02.136Z,101069.63
2023-04-18T17:53:32.285Z,101072.28
2023-04-18T17:56:03.855Z,101072.53
2023-04-18T17:58:32.491Z,101073.75
2023-04-18T18:01:01.547Z,101076.63
2023-04-18T18:03:30.582Z,101086.75
2023-04-18T18:05:59.931Z,101082.53
2023-04-18T18:08:29.649Z,101080.00
2023-04-18T18:10:58.650Z,101081.19
2023-04-18T18:13:28.707Z,101075.88
2023-04-18T18:15:58.088Z,101082.28
2023-04-18T18:18:31.435Z,101073.72
2023-04-18T18:21:00.584Z,101079.72
2023-04-18T18:23:29.438Z,101071.78
2023-04-18T18:25:58.478Z,101071.53
2023-04-18T18:28:28.916Z,101069.97
2023-04-18T18:30:57.875Z,101077.28
2023-04-18T18:33:27.878Z,101069.13
2023-04-18T18:35:58.648Z,101059.25
2023-04-18T18:38:27.448Z,101064.03
2023-04-18T18:40:56.518Z,101063.53
2023-04-18T18:43:26.348Z,101060.88
2023-04-18T18:45:56.801Z,101063.63
2023-04-18T18:48:26.031Z,101062.09
2023-04-18T18:50:56.544Z,101059.53
2023-04-18T18:53:25.198Z,101058.72
2023-04-18T18:55:54.171Z,101055.56
2023-04-18T18:58:22.976Z,101047.50
2023-04-18T19:00:52.163Z,101051.94
2023-04-18T19:03:22.249Z,101053.38
2023-04-18T19:05:51.464Z,101048.56
2023-04-18T19:08:20.122Z,101045.53
2023-04-18T19:10:49.343Z,101049.28
2023-04-18T19:13:22.446Z,101043.97
2023-04-18T19:15:51.650Z,101036.38
2023-04-18T19:18:21.763Z,101034.69
2023-04-18T19:20:51.704Z,101036.59
2023-04-18T19:23:20.501Z,101031.31
2023-04-18T19:25:49.491Z,101036.59
2023-04-18T19:28:18.489Z,101026.63
2023-04-18T19:30:47.621Z,101029.53
2023-04-18T19:33:17.294Z,101029.75
2023-04-18T19:35:47.633Z,101024.69
2023-04-18T19:38:16.446Z,101024.91
2023-04-18T19:40:45.586Z,101026.09
2023-04-18T19:43:14.551Z,101029.59
2023-04-18T19:45:43.598Z,101018.28
2023-04-18T19:48:12.343Z,101011.41
2023-04-18T19:50:42.305Z,101017.66
2023-04-18T19:53:12.864Z,101023.06
2023-04-18T19:55:41.853Z,101021.03
2023-04-18T19:58:10.595Z,101019.94
2023-04-18T20:00:39.700Z,101019.66
2023-04-18T20:03:08.676Z,101014.47
2023-04-18T20:05:37.846Z,101013.97
2023-04-18T20:08:07.332Z,101017.53
2023-04-18T20:10:37.809Z,101008.63
2023-04-18T20:13:06.995Z,101007.38
2023-04-18T20:15:36.668Z,101011.50
2023-04-18T20:18:05.610Z,101012.78
2023-04-18T20:20:35.770Z,101006.44
2023-04-18T20:23:04.486Z,101001.81
2023-04-18T20:25:34.833Z,101000.94
2023-04-18T20:28:05.410Z,100999.75
2023-04-18T20:30:36.232Z,101003.22
2023-04-18T20:33:05.532Z,100999.56
2023-04-18T20:35:34.559Z,100997.88
2023-04-18T20:38:03.363Z,100997.34
2023-04-18T20:40:33.316Z,100987.94
2023-04-18T20:43:03.031Z,100990.78
2023-04-18T20:45:34.774Z,100987.13
2023-04-18T20:48:03.683Z,100980.88
2023-04-18T20:50:32.874Z,100984.25
2023-04-18T20:53:02.371Z,100982.91
2023-04-18T20:55:31.427Z,100978.34
2023-04-18T20:58:00.100Z,100974.13
2023-04-18T21:00:29.577Z,100968.44
2023-04-18T21:02:59.879Z,100971.09
2023-04-18T21:05:29.126Z,100967.69
2023-04-18T21:07:59.647Z,100966.44
2023-04-18T21:10:28.639Z,100960.53
2023-04-18T21:12:57.351Z,100956.09
2023-04-18T21:15:26.456Z,100949.44
2023-04-18T21:17:55.200Z,100954.84
2023-04-18T21:20:25.870Z,100954.00
2023-04-18T21:22:54.735Z,100949.56
2023-04-18T21:25:23.850Z,100951.38
2023-04-18T21:27:52.737Z,100953.84
2023-04-18T21:30:23.421Z,100952.13
2023-04-18T21:32:52.287Z,100946.34
2023-04-18T21:35:23.404Z,100935.97
2023-04-18T21:37:54.966Z,100935.25
2023-04-18T21:40:24.394Z,100944.78
2023-04-18T21:42:53.038Z,100937.78
2023-04-18T21:45:22.446Z,100939.69
2023-04-18T21:47:51.349Z,100928.25
2023-04-18T21:50:20.473Z,100927.97
2023-04-18T21:52:49.363Z,100923.84
2023-04-18T21:55:19.994Z,100926.59
2023-04-18T21:57:48.911Z,100922.16
2023-04-18T22:00:19.090Z,100922.06
2023-04-18T22:02:48.136Z,100909.91
2023-04-18T22:05:17.855Z,100918.03
2023-04-18T22:07:57.494Z,100910.13
2023-04-18T22:10:29.085Z,100910.31
2023-04-18T22:12:58.438Z,100906.94
2023-04-18T22:15:27.921Z,100902.75
2023-04-18T22:17:57.835Z,100898.84
2023-04-18T22:20:27.855Z,100906.00
2023-04-18T22:22:56.471Z,100899.78
2023-04-18T22:25:25.686Z,100899.53
2023-04-18T22:27:55.876Z,100899.47
2023-04-18T22:30:24.877Z,100896.38
2023-04-18T22:32:53.632Z,100884.34
2023-04-18T22:35:22.859Z,100888.34
2023-04-18T22:37:51.457Z,100881.50
2023-04-18T22:40:20.695Z,100883.38
2023-04-18T22:42:51.851Z,100879.69
2023-04-18T22:45:22.866Z,100874.41
2023-04-18T22:47:51.609Z,100878.00
2023-04-18T22:50:20.947Z,100872.94
2023-04-18T22:52:50.667Z,100870.41
2023-04-18T22:55:20.267Z,100864.16
2023-04-18T22:57:49.098Z,100867.88
2023-04-18T23:00:18.812Z,100867.44
2023-04-18T23:02:48.954Z,100866.38
2023-04-18T23:05:18.098Z,100864.06
2023-04-18T23:07:46.779Z,100858.38
2023-04-18T23:10:15.728Z,100859.22
2023-04-18T23:12:44.408Z,100858.38
2023-04-18T23:15:13.630Z,100855.72
2023-04-18T23:17:42.352Z,100858.38
2023-04-18T23:20:14.109Z,100847.50
2023-04-18T23:22:42.765Z,100844.84
2023-04-18T23:25:11.866Z,100842.53
2023-04-18T23:27:40.502Z,100845.88
2023-04-18T23:30:11.026Z,100843.25
2023-04-18T23:32:39.754Z,100843.16
2023-04-18T23:35:09.548Z,100842.53
2023-04-18T23:37:39.585Z,100833.00
2023-04-18T23:40:10.129Z,100832.28
2023-04-18T23:42:38.762Z,100832.13
2023-04-18T23:45:08.873Z,100826.88
2023-04-18T23:47:37.578Z,100830.03
2023-04-18T23:50:08.240Z,100829.38
2023-04-18T23:52:38.188Z,100820.94
2023-04-18T23:55:10.018Z,100817.97
2023-04-18T23:57:38.671Z,100815.06
